sensor_id;sensor_type;location;lat;lon;timestamp;temperature;humidity
43227;DHT22;28839;52.404;9.808;2022-07-22T00:04:10;18.80;99.90
43227;DHT22;28839;52.404;9.808;2022-07-22T00:11:04;18.80;99.90
43227;DHT22;28839;52.404;9.808;2022-07-22T00:17:59;18.90;99.90
43227;DHT22;28839;52.404;9.808;2022-07-22T00:24:53;18.80;99.90
43227;DHT22;28839;52.404;9.808;2022-07-22T00:31:47;18.70;99.90
43227;DHT22;28839;52.404;9.808;2022-07-22T00:38:42;18.70;99.90
43227;DHT22;28839;52.404;9.808;2022-07-22T00:45:36;18.70;99.90
43227;DHT22;28839;52.404;9.808;2022-07-22T00:52:31;18.80;99.90
43227;DHT22;28839;52.404;9.808;2022-07-22T00:59:26;18.80;99.90
43227;DHT22;28839;52.404;9.808;2022-07-22T01:06:20;18.80;99.90
43227;DHT22;28839;52.404;9.808;2022-07-22T01:13:14;18.80;99.90
43227;DHT22;28839;52.404;9.808;2022-07-22T01:20:10;18.80;99.90
43227;DHT22;28839;52.404;9.808;2022-07-22T01:27:05;18.90;99.90
43227;DHT22;28839;52.404;9.808;2022-07-22T01:33:58;18.80;99.90
43227;DHT22;28839;52.404;9.808;2022-07-22T01:40:54;19.00;99.90
43227;DHT22;28839;52.404;9.808;2022-07-22T01:47:48;18.90;99.90
43227;DHT22;28839;52.404;9.808;2022-07-22T01:54:42;18.90;99.90
43227;DHT22;28839;52.404;9.808;2022-07-22T02:01:37;18.70;99.90
43227;DHT22;28839;52.404;9.808;2022-07-22T02:08:31;18.70;99.90
43227;DHT22;28839;52.404;9.808;2022-07-22T02:15:24;18.70;99.90
43227;DHT22;28839;52.404;9.808;2022-07-22T02:22:20;18.60;99.90
43227;DHT22;28839;52.404;9.808;2022-07-22T02:29:14;18.40;99.90
43227;DHT22;28839;52.404;9.808;2022-07-22T02:36:08;18.10;99.90
43227;DHT22;28839;52.404;9.808;2022-07-22T02:43:03;18.00;99.90
43227;DHT22;28839;52.404;9.808;2022-07-22T02:50:02;17.80;99.90
43227;DHT22;28839;52.404;9.808;2022-07-22T02:56:56;17.70;99.90
43227;DHT22;28839;52.404;9.808;2022-07-22T03:03:51;17.50;99.90
43227;DHT22;28839;52.404;9.808;2022-07-22T03:10:45;17.60;99.90
43227;DHT22;28839;52.404;9.808;2022-07-22T03:17:39;17.40;99.90
43227;DHT22;28839;52.404;9.808;2022-07-22T03:24:34;17.50;99.90
43227;DHT22;28839;52.404;9.808;2022-07-22T03:31:28;17.30;99.90
43227;DHT22;28839;52.404;9.808;2022-07-22T03:38:22;17.30;99.90
43227;DHT22;28839;52.404;9.808;2022-07-22T03:45:17;17.20;99.90
43227;DHT22;28839;52.404;9.808;2022-07-22T03:52:13;17.30;99.90
43227;DHT22;28839;52.404;9.808;2022-07-22T03:59:07;17.30;99.90
43227;DHT22;28839;52.404;9.808;2022-07-22T04:06:02;17.20;99.90
43227;DHT22;28839;52.404;9.808;2022-07-22T04:12:56;17.20;99.90
43227;DHT22;28839;52.404;9.808;2022-07-22T04:19:50;17.20;99.90
43227;DHT22;28839;52.404;9.808;2022-07-22T04:26:45;17.30;99.90
43227;DHT22;28839;52.404;9.808;2022-07-22T04:33:39;17.30;99.90
43227;DHT22;28839;52.404;9.808;2022-07-22T04:40:32;17.30;99.90
43227;DHT22;28839;52.404;9.808;2022-07-22T04:47:28;17.10;99.90
43227;DHT22;28839;52.404;9.808;2022-07-22T04:54:22;17.20;99.90
43227;DHT22;28839;52.404;9.808;2022-07-22T05:01:15;17.10;99.90
43227;DHT22;28839;52.404;9.808;2022-07-22T05:08:11;17.10;99.90
43227;DHT22;28839;52.404;9.808;2022-07-22T05:15:05;17.10;99.90
43227;DHT22;28839;52.404;9.808;2022-07-22T05:21:59;17.10;99.90
43227;DHT22;28839;52.404;9.808;2022-07-22T05:28:54;17.00;99.90
43227;DHT22;28839;52.404;9.808;2022-07-22T05:35:48;17.10;99.90
43227;DHT22;28839;52.404;9.808;2022-07-22T05:42:42;17.10;99.90
43227;DHT22;28839;52.404;9.808;2022-07-22T05:49:37;17.10;99.90
43227;DHT22;28839;52.404;9.808;2022-07-22T05:56:31;17.30;99.90
43227;DHT22;28839;52.404;9.808;2022-07-22T06:03:25;17.30;99.90
43227;DHT22;28839;52.404;9.808;2022-07-22T06:10:20;17.30;99.90
43227;DHT22;28839;52.404;9.808;2022-07-22T06:17:14;17.30;99.90
43227;DHT22;28839;52.404;9.808;2022-07-22T06:24:08;17.40;99.90
43227;DHT22;28839;52.404;9.808;2022-07-22T06:31:03;17.40;99.90
43227;DHT22;28839;52.404;9.808;2022-07-22T06:37:57;17.40;99.90
43227;DHT22;28839;52.404;9.808;2022-07-22T06:44:51;17.40;99.90
43227;DHT22;28839;52.404;9.808;2022-07-22T06:51:47;17.60;99.90
43227;DHT22;28839;52.404;9.808;2022-07-22T06:58:40;17.80;99.90
43227;DHT22;28839;52.404;9.808;2022-07-22T07:05:34;17.80;99.90
43227;DHT22;28839;52.404;9.808;2022-07-22T07:12:29;18.00;99.90
43227;DHT22;28839;52.404;9.808;2022-07-22T07:19:23;18.00;99.90
43227;DHT22;28839;52.404;9.808;2022-07-22T07:26:17;18.00;99.90
43227;DHT22;28839;52.404;9.808;2022-07-22T07:33:12;18.10;99.90
43227;DHT22;28839;52.404;9.808;2022-07-22T07:40:07;18.00;99.90
43227;DHT22;28839;52.404;9.808;2022-07-22T07:47:01;17.80;99.90
43227;DHT22;28839;52.404;9.808;2022-07-22T07:53:56;17.80;99.90
43227;DHT22;28839;52.404;9.808;2022-07-22T08:00:50;17.90;99.90
43227;DHT22;28839;52.404;9.808;2022-07-22T08:07:44;17.90;99.90
43227;DHT22;28839;52.404;9.808;2022-07-22T08:14:39;19.10;99.90
43227;DHT22;28839;52.404;9.808;2022-07-22T08:21:33;19.90;99.90
43227;DHT22;28839;52.404;9.808;2022-07-22T08:28:27;20.30;99.90
43227;DHT22;28839;52.404;9.808;2022-07-22T08:35:22;19.70;99.90
43227;DHT22;28839;52.404;9.808;2022-07-22T08:42:16;19.10;99.90
43227;DHT22;28839;52.404;9.808;2022-07-22T08:49:13;19.00;99.90
43227;DHT22;28839;52.404;9.808;2022-07-22T08:56:13;19.10;99.90
43227;DHT22;28839;52.404;9.808;2022-07-22T09:03:18;18.90;99.90
43227;DHT22;28839;52.404;9.808;2022-07-22T09:10:16;19.20;99.90
43227;DHT22;28839;52.404;9.808;2022-07-22T09:17:27;19.80;99.90
43227;DHT22;28839;52.404;9.808;2022-07-22T09:24:29;19.80;99.90
43227;DHT22;28839;52.404;9.808;2022-07-22T09:31:24;19.70;99.90
43227;DHT22;28839;52.404;9.808;2022-07-22T09:38:28;19.40;99.90
43227;DHT22;28839;52.404;9.808;2022-07-22T09:45:25;19.20;99.90
43227;DHT22;28839;52.404;9.808;2022-07-22T09:52:20;19.10;99.90
43227;DHT22;28839;52.404;9.808;2022-07-22T09:59:15;19.00;99.90
43227;DHT22;28839;52.404;9.808;2022-07-22T10:06:09;19.50;99.90
43227;DHT22;28839;52.404;9.808;2022-07-22T10:13:05;19.80;99.90
43227;DHT22;28839;52.404;9.808;2022-07-22T10:20:00;19.70;99.90
43227;DHT22;28839;52.404;9.808;2022-07-22T10:26:56;19.70;99.90
43227;DHT22;28839;52.404;9.808;2022-07-22T10:33:51;19.50;99.90
43227;DHT22;28839;52.404;9.808;2022-07-22T10:40:49;19.70;99.90
43227;DHT22;28839;52.404;9.808;2022-07-22T10:47:53;20.00;99.90
43227;DHT22;28839;52.404;9.808;2022-07-22T10:55:18;19.90;99.90
43227;DHT22;28839;52.404;9.808;2022-07-22T11:02:14;19.70;99.90
43227;DHT22;28839;52.404;9.808;2022-07-22T11:09:12;19.50;99.90
43227;DHT22;28839;52.404;9.808;2022-07-22T11:16:19;19.20;99.90
43227;DHT22;28839;52.404;9.808;2022-07-22T11:23:16;19.40;99.90
43227;DHT22;28839;52.404;9.808;2022-07-22T11:30:11;19.40;99.90
43227;DHT22;28839;52.404;9.808;2022-07-22T11:37:07;19.50;99.90
43227;DHT22;28839;52.404;9.808;2022-07-22T11:44:03;19.70;99.90
43227;DHT22;28839;52.404;9.808;2022-07-22T11:50:59;19.70;99.90
43227;DHT22;28839;52.404;9.808;2022-07-22T11:57:53;19.90;99.90
43227;DHT22;28839;52.404;9.808;2022-07-22T12:04:48;20.30;99.90
43227;DHT22;28839;52.404;9.808;2022-07-22T12:11:46;19.90;99.90
43227;DHT22;28839;52.404;9.808;2022-07-22T12:18:42;20.00;99.90
43227;DHT22;28839;52.404;9.808;2022-07-22T12:25:50;20.10;99.90
43227;DHT22;28839;52.404;9.808;2022-07-22T12:32:46;20.10;99.90
43227;DHT22;28839;52.404;9.808;2022-07-22T12:39:56;20.10;99.90
43227;DHT22;28839;52.404;9.808;2022-07-22T12:46:54;20.00;99.90
43227;DHT22;28839;52.404;9.808;2022-07-22T12:53:48;19.90;99.90
43227;DHT22;28839;52.404;9.808;2022-07-22T13:00:43;20.00;99.90
43227;DHT22;28839;52.404;9.808;2022-07-22T13:07:40;20.00;99.90
43227;DHT22;28839;52.404;9.808;2022-07-22T13:14:34;20.20;99.90
43227;DHT22;28839;52.404;9.808;2022-07-22T13:21:28;20.40;99.90
43227;DHT22;28839;52.404;9.808;2022-07-22T13:28:23;20.30;99.90
43227;DHT22;28839;52.404;9.808;2022-07-22T13:35:18;20.80;99.90
43227;DHT22;28839;52.404;9.808;2022-07-22T13:42:12;20.50;99.90
43227;DHT22;28839;52.404;9.808;2022-07-22T13:49:07;20.50;99.90
43227;DHT22;28839;52.404;9.808;2022-07-22T13:56:01;20.40;99.90
43227;DHT22;28839;52.404;9.808;2022-07-22T14:02:55;20.50;99.90
43227;DHT22;28839;52.404;9.808;2022-07-22T14:09:50;20.60;99.90
43227;DHT22;28839;52.404;9.808;2022-07-22T14:16:44;20.60;99.90
43227;DHT22;28839;52.404;9.808;2022-07-22T14:23:41;20.30;99.90
43227;DHT22;28839;52.404;9.808;2022-07-22T14:30:36;20.20;99.90
43227;DHT22;28839;52.404;9.808;2022-07-22T14:37:33;20.10;99.90
43227;DHT22;28839;52.404;9.808;2022-07-22T14:44:31;20.10;99.90
43227;DHT22;28839;52.404;9.808;2022-07-22T14:51:27;20.20;99.90
43227;DHT22;28839;52.404;9.808;2022-07-22T14:58:21;20.20;99.90
43227;DHT22;28839;52.404;9.808;2022-07-22T15:05:14;19.90;99.90
43227;DHT22;28839;52.404;9.808;2022-07-22T15:12:10;19.80;99.90
43227;DHT22;28839;52.404;9.808;2022-07-22T15:19:04;20.10;99.90
43227;DHT22;28839;52.404;9.808;2022-07-22T15:25:57;20.00;99.90
43227;DHT22;28839;52.404;9.808;2022-07-22T15:32:53;20.00;99.90
43227;DHT22;28839;52.404;9.808;2022-07-22T15:39:47;19.80;99.90
43227;DHT22;28839;52.404;9.808;2022-07-22T15:46:41;19.90;99.90
43227;DHT22;28839;52.404;9.808;2022-07-22T15:53:36;20.00;99.90
43227;DHT22;28839;52.404;9.808;2022-07-22T16:00:31;20.00;99.90
43227;DHT22;28839;52.404;9.808;2022-07-22T16:07:25;19.90;99.90
43227;DHT22;28839;52.404;9.808;2022-07-22T16:14:20;19.80;99.90
43227;DHT22;28839;52.404;9.808;2022-07-22T16:21:14;19.70;99.90
43227;DHT22;28839;52.404;9.808;2022-07-22T16:28:08;19.80;99.90
43227;DHT22;28839;52.404;9.808;2022-07-22T16:35:04;19.60;99.90
43227;DHT22;28839;52.404;9.808;2022-07-22T16:41:58;19.60;99.90
43227;DHT22;28839;52.404;9.808;2022-07-22T16:48:52;19.80;99.90
43227;DHT22;28839;52.404;9.808;2022-07-22T16:55:47;19.70;99.90
43227;DHT22;28839;52.404;9.808;2022-07-22T17:02:41;19.60;99.90
43227;DHT22;28839;52.404;9.808;2022-07-22T17:09:35;19.60;99.90
43227;DHT22;28839;52.404;9.808;2022-07-22T17:16:31;19.60;99.90
43227;DHT22;28839;52.404;9.808;2022-07-22T17:23:25;19.60;99.90
43227;DHT22;28839;52.404;9.808;2022-07-22T17:30:19;19.60;99.90
43227;DHT22;28839;52.404;9.808;2022-07-22T17:37:16;19.40;99.90
43227;DHT22;28839;52.404;9.808;2022-07-22T17:44:10;19.40;99.90
43227;DHT22;28839;52.404;9.808;2022-07-22T17:51:07;19.20;99.90
43227;DHT22;28839;52.404;9.808;2022-07-22T17:58:04;19.30;99.90
43227;DHT22;28839;52.404;9.808;2022-07-22T18:04:58;19.40;99.90
43227;DHT22;28839;52.404;9.808;2022-07-22T18:11:52;19.40;99.90
43227;DHT22;28839;52.404;9.808;2022-07-22T18:18:47;19.20;99.90
43227;DHT22;28839;52.404;9.808;2022-07-22T18:25:41;19.20;99.90
43227;DHT22;28839;52.404;9.808;2022-07-22T18:32:35;19.20;99.90
43227;DHT22;28839;52.404;9.808;2022-07-22T18:39:31;19.20;99.90
43227;DHT22;28839;52.404;9.808;2022-07-22T18:46:25;19.10;99.90
43227;DHT22;28839;52.404;9.808;2022-07-22T18:53:19;19.10;99.90
43227;DHT22;28839;52.404;9.808;2022-07-22T19:00:14;19.10;99.90
43227;DHT22;28839;52.404;9.808;2022-07-22T19:07:08;18.90;99.90
43227;DHT22;28839;52.404;9.808;2022-07-22T19:14:02;18.70;99.90
43227;DHT22;28839;52.404;9.808;2022-07-22T19:20:58;18.50;99.90
43227;DHT22;28839;52.404;9.808;2022-07-22T19:27:52;18.50;99.90
43227;DHT22;28839;52.404;9.808;2022-07-22T19:34:46;18.50;99.90
43227;DHT22;28839;52.404;9.808;2022-07-22T19:41:41;18.30;99.90
43227;DHT22;28839;52.404;9.808;2022-07-22T19:48:35;18.30;99.90
43227;DHT22;28839;52.404;9.808;2022-07-22T19:55:29;18.50;99.90
43227;DHT22;28839;52.404;9.808;2022-07-22T20:02:24;18.40;99.90
43227;DHT22;28839;52.404;9.808;2022-07-22T20:09:18;18.50;99.90
43227;DHT22;28839;52.404;9.808;2022-07-22T20:16:12;18.20;99.90
43227;DHT22;28839;52.404;9.808;2022-07-22T20:23:08;18.20;99.90
43227;DHT22;28839;52.404;9.808;2022-07-22T20:30:02;18.00;99.90
43227;DHT22;28839;52.404;9.808;2022-07-22T20:36:56;17.70;99.90
43227;DHT22;28839;52.404;9.808;2022-07-22T20:43:54;17.40;99.90
43227;DHT22;28839;52.404;9.808;2022-07-22T20:50:48;17.30;99.90
43227;DHT22;28839;52.404;9.808;2022-07-22T20:57:42;17.20;99.90
43227;DHT22;28839;52.404;9.808;2022-07-22T21:04:37;17.00;99.90
43227;DHT22;28839;52.404;9.808;2022-07-22T21:11:31;16.80;99.90
43227;DHT22;28839;52.404;9.808;2022-07-22T21:18:25;16.70;99.90
43227;DHT22;28839;52.404;9.808;2022-07-22T21:25:20;16.60;99.90
43227;DHT22;28839;52.404;9.808;2022-07-22T21:32:14;16.50;99.90
43227;DHT22;28839;52.404;9.808;2022-07-22T21:39:09;16.40;99.90
43227;DHT22;28839;52.404;9.808;2022-07-22T21:46:04;16.20;99.90
43227;DHT22;28839;52.404;9.808;2022-07-22T21:52:59;16.20;99.90
43227;DHT22;28839;52.404;9.808;2022-07-22T21:59:53;16.20;99.90
43227;DHT22;28839;52.404;9.808;2022-07-22T22:06:48;16.20;99.90
43227;DHT22;28839;52.404;9.808;2022-07-22T22:13:42;16.30;99.90
43227;DHT22;28839;52.404;9.808;2022-07-22T22:20:36;16.10;99.90
43227;DHT22;28839;52.404;9.808;2022-07-22T22:27:32;16.20;99.90
43227;DHT22;28839;52.404;9.808;2022-07-22T22:34:26;16.10;99.90
43227;DHT22;28839;52.404;9.808;2022-07-22T22:41:20;16.00;99.90
43227;DHT22;28839;52.404;9.808;2022-07-22T22:48:15;16.10;99.90
43227;DHT22;28839;52.404;9.808;2022-07-22T22:55:09;16.00;99.90
43227;DHT22;28839;52.404;9.808;2022-07-22T23:02:03;16.00;99.90
43227;DHT22;28839;52.404;9.808;2022-07-22T23:08:58;16.00;99.90
43227;DHT22;28839;52.404;9.808;2022-07-22T23:15:52;15.90;99.90
43227;DHT22;28839;52.404;9.808;2022-07-22T23:22:46;15.90;99.90
43227;DHT22;28839;52.404;9.808;2022-07-22T23:29:41;15.90;99.90
43227;DHT22;28839;52.404;9.808;2022-07-22T23:36:35;16.00;99.90
43227;DHT22;28839;52.404;9.808;2022-07-22T23:43:29;16.00;99.90
43227;DHT22;28839;52.404;9.808;2022-07-22T23:50:24;15.80;99.90
43227;DHT22;28839;52.404;9.808;2022-07-22T23:57:18;15.70;99.90
